Aviation Digital Data Service (ADDS)

Output produced by METARs form (1530 UTC 29 April 2017)
found at http://aviationweather.gov/adds/metars/
 
KLCH 291120Z 2912/3012 15018G25KT P6SM VCSH OVC015 
     FM291600 16024G31KT P6SM VCSH OVC020 
     FM300700 17021G29KT P6SM VCTS OVC015CB 
     TEMPO 3010/3012 1SM +TSRA